sensor_id;sensor_type;location;lat;lon;timestamp;P1;durP1;ratioP1;P2;durP2;ratioP2
66212;SDS011;53015;50.046;8.238;2023-11-19T00:00:58;6.47;;;4.00;;
66212;SDS011;53015;50.046;8.238;2023-11-19T00:03:23;6.75;;;4.50;;
66212;SDS011;53015;50.046;8.238;2023-11-19T00:05:49;8.57;;;4.50;;
66212;SDS011;53015;50.046;8.238;2023-11-19T00:08:14;6.20;;;4.40;;
66212;SDS011;53015;50.046;8.238;2023-11-19T00:10:40;7.72;;;5.18;;
66212;SDS011;53015;50.046;8.238;2023-11-19T00:13:05;8.35;;;5.50;;
66212;SDS011;53015;50.046;8.238;2023-11-19T00:15:30;8.30;;;5.05;;
66212;SDS011;53015;50.046;8.238;2023-11-19T00:17:57;9.18;;;5.70;;
66212;SDS011;53015;50.046;8.238;2023-11-19T00:20:23;9.77;;;5.20;;
66212;SDS011;53015;50.046;8.238;2023-11-19T00:22:48;5.18;;;4.65;;
66212;SDS011;53015;50.046;8.238;2023-11-19T00:25:14;6.82;;;4.53;;
66212;SDS011;53015;50.046;8.238;2023-11-19T00:27:40;6.78;;;5.10;;
66212;SDS011;53015;50.046;8.238;2023-11-19T00:30:06;6.70;;;5.03;;
66212;SDS011;53015;50.046;8.238;2023-11-19T00:32:32;7.07;;;4.75;;
66212;SDS011;53015;50.046;8.238;2023-11-19T00:34:59;5.88;;;4.55;;
66212;SDS011;53015;50.046;8.238;2023-11-19T00:37:24;6.60;;;4.60;;
66212;SDS011;53015;50.046;8.238;2023-11-19T00:39:50;7.47;;;4.90;;
66212;SDS011;53015;50.046;8.238;2023-11-19T00:42:15;10.73;;;4.75;;
66212;SDS011;53015;50.046;8.238;2023-11-19T00:44:41;5.13;;;4.63;;
66212;SDS011;53015;50.046;8.238;2023-11-19T00:47:06;6.65;;;4.75;;
66212;SDS011;53015;50.046;8.238;2023-11-19T00:49:32;8.18;;;4.78;;
66212;SDS011;53015;50.046;8.238;2023-11-19T00:51:59;6.55;;;4.88;;
66212;SDS011;53015;50.046;8.238;2023-11-19T00:54:24;6.55;;;4.40;;
66212;SDS011;53015;50.046;8.238;2023-11-19T00:56:50;8.25;;;4.78;;
66212;SDS011;53015;50.046;8.238;2023-11-19T00:59:15;9.13;;;5.35;;
66212;SDS011;53015;50.046;8.238;2023-11-19T01:01:41;8.35;;;5.40;;
66212;SDS011;53015;50.046;8.238;2023-11-19T01:04:06;7.82;;;5.00;;
66212;SDS011;53015;50.046;8.238;2023-11-19T01:06:32;6.53;;;4.00;;
66212;SDS011;53015;50.046;8.238;2023-11-19T01:08:59;5.10;;;3.42;;
66212;SDS011;53015;50.046;8.238;2023-11-19T01:11:24;5.57;;;3.85;;
66212;SDS011;53015;50.046;8.238;2023-11-19T01:13:50;8.50;;;3.95;;
66212;SDS011;53015;50.046;8.238;2023-11-19T01:16:17;5.72;;;3.60;;
66212;SDS011;53015;50.046;8.238;2023-11-19T01:18:43;4.72;;;3.25;;
66212;SDS011;53015;50.046;8.238;2023-11-19T01:21:08;6.38;;;4.00;;
66212;SDS011;53015;50.046;8.238;2023-11-19T01:23:34;5.28;;;3.70;;
66212;SDS011;53015;50.046;8.238;2023-11-19T01:26:01;4.53;;;2.92;;
66212;SDS011;53015;50.046;8.238;2023-11-19T01:28:26;4.45;;;3.05;;
66212;SDS011;53015;50.046;8.238;2023-11-19T01:30:52;3.33;;;2.50;;
66212;SDS011;53015;50.046;8.238;2023-11-19T01:33:18;5.70;;;2.50;;
66212;SDS011;53015;50.046;8.238;2023-11-19T01:35:44;3.55;;;2.45;;
66212;SDS011;53015;50.046;8.238;2023-11-19T01:38:09;3.15;;;2.05;;
66212;SDS011;53015;50.046;8.238;2023-11-19T01:40:35;2.72;;;1.80;;
66212;SDS011;53015;50.046;8.238;2023-11-19T01:43:02;3.75;;;1.83;;
66212;SDS011;53015;50.046;8.238;2023-11-19T01:45:29;3.33;;;2.08;;
66212;SDS011;53015;50.046;8.238;2023-11-19T01:47:55;2.28;;;1.58;;
66212;SDS011;53015;50.046;8.238;2023-11-19T01:50:21;1.58;;;1.48;;
66212;SDS011;53015;50.046;8.238;2023-11-19T01:52:47;1.70;;;1.40;;
66212;SDS011;53015;50.046;8.238;2023-11-19T01:55:13;1.63;;;1.30;;
66212;SDS011;53015;50.046;8.238;2023-11-19T01:57:39;2.28;;;1.40;;
66212;SDS011;53015;50.046;8.238;2023-11-19T02:00:07;1.92;;;1.40;;
66212;SDS011;53015;50.046;8.238;2023-11-19T02:02:34;2.80;;;1.50;;
66212;SDS011;53015;50.046;8.238;2023-11-19T02:05:00;1.83;;;1.40;;
66212;SDS011;53015;50.046;8.238;2023-11-19T02:07:25;2.15;;;1.55;;
66212;SDS011;53015;50.046;8.238;2023-11-19T02:09:51;2.10;;;1.30;;
66212;SDS011;53015;50.046;8.238;2023-11-19T02:12:17;2.00;;;1.65;;
66212;SDS011;53015;50.046;8.238;2023-11-19T02:14:42;2.13;;;1.50;;
66212;SDS011;53015;50.046;8.238;2023-11-19T02:19:53;4.55;;;1.60;;
66212;SDS011;53015;50.046;8.238;2023-11-19T02:22:19;2.65;;;1.50;;
66212;SDS011;53015;50.046;8.238;2023-11-19T02:24:45;2.53;;;1.60;;
66212;SDS011;53015;50.046;8.238;2023-11-19T02:27:14;2.00;;;1.80;;
66212;SDS011;53015;50.046;8.238;2023-11-19T02:29:47;4.10;;;1.95;;
66212;SDS011;53015;50.046;8.238;2023-11-19T02:32:13;2.83;;;1.90;;
66212;SDS011;53015;50.046;8.238;2023-11-19T02:34:40;3.95;;;1.80;;
66212;SDS011;53015;50.046;8.238;2023-11-19T02:37:06;2.50;;;1.73;;
66212;SDS011;53015;50.046;8.238;2023-11-19T02:39:32;2.67;;;1.80;;
66212;SDS011;53015;50.046;8.238;2023-11-19T02:41:57;5.40;;;1.80;;
66212;SDS011;53015;50.046;8.238;2023-11-19T02:44:23;3.35;;;1.55;;
66212;SDS011;53015;50.046;8.238;2023-11-19T02:46:50;3.35;;;2.08;;
66212;SDS011;53015;50.046;8.238;2023-11-19T02:49:15;2.33;;;1.95;;
66212;SDS011;53015;50.046;8.238;2023-11-19T02:51:41;2.75;;;1.80;;
66212;SDS011;53015;50.046;8.238;2023-11-19T02:54:06;5.75;;;2.15;;
66212;SDS011;53015;50.046;8.238;2023-11-19T02:56:32;5.38;;;2.15;;
66212;SDS011;53015;50.046;8.238;2023-11-19T02:58:57;7.25;;;2.30;;
66212;SDS011;53015;50.046;8.238;2023-11-19T03:01:22;3.78;;;2.10;;
66212;SDS011;53015;50.046;8.238;2023-11-19T03:03:50;4.53;;;2.20;;
66212;SDS011;53015;50.046;8.238;2023-11-19T03:06:15;6.70;;;2.63;;
66212;SDS011;53015;50.046;8.238;2023-11-19T03:08:41;5.43;;;2.30;;
66212;SDS011;53015;50.046;8.238;2023-11-19T03:11:07;6.15;;;2.47;;
66212;SDS011;53015;50.046;8.238;2023-11-19T03:13:33;4.10;;;2.25;;
66212;SDS011;53015;50.046;8.238;2023-11-19T03:15:58;4.88;;;2.53;;
66212;SDS011;53015;50.046;8.238;2023-11-19T03:18:24;4.47;;;2.42;;
66212;SDS011;53015;50.046;8.238;2023-11-19T03:20:51;5.32;;;2.47;;
66212;SDS011;53015;50.046;8.238;2023-11-19T03:23:17;9.32;;;2.60;;
66212;SDS011;53015;50.046;8.238;2023-11-19T03:25:42;6.18;;;2.50;;
66212;SDS011;53015;50.046;8.238;2023-11-19T03:28:08;5.63;;;2.70;;
66212;SDS011;53015;50.046;8.238;2023-11-19T03:30:34;6.38;;;2.70;;
66212;SDS011;53015;50.046;8.238;2023-11-19T03:32:59;3.40;;;2.22;;
66212;SDS011;53015;50.046;8.238;2023-11-19T03:35:25;5.75;;;3.08;;
66212;SDS011;53015;50.046;8.238;2023-11-19T03:37:52;4.25;;;2.90;;
66212;SDS011;53015;50.046;8.238;2023-11-19T03:40:18;4.13;;;2.40;;
66212;SDS011;53015;50.046;8.238;2023-11-19T03:42:43;4.55;;;3.03;;
66212;SDS011;53015;50.046;8.238;2023-11-19T03:45:09;5.72;;;3.00;;
66212;SDS011;53015;50.046;8.238;2023-11-19T03:47:35;4.47;;;2.50;;
66212;SDS011;53015;50.046;8.238;2023-11-19T03:50:01;6.40;;;2.70;;
66212;SDS011;53015;50.046;8.238;2023-11-19T03:52:26;7.22;;;3.30;;
66212;SDS011;53015;50.046;8.238;2023-11-19T03:54:53;8.13;;;3.40;;
66212;SDS011;53015;50.046;8.238;2023-11-19T03:57:19;9.00;;;3.30;;
66212;SDS011;53015;50.046;8.238;2023-11-19T03:59:45;4.30;;;2.92;;
66212;SDS011;53015;50.046;8.238;2023-11-19T04:02:10;6.30;;;3.55;;
66212;SDS011;53015;50.046;8.238;2023-11-19T04:04:36;6.30;;;3.65;;
66212;SDS011;53015;50.046;8.238;2023-11-19T04:07:01;8.95;;;3.33;;
66212;SDS011;53015;50.046;8.238;2023-11-19T04:09:27;5.72;;;3.60;;
66212;SDS011;53015;50.046;8.238;2023-11-19T04:11:54;3.80;;;3.05;;
66212;SDS011;53015;50.046;8.238;2023-11-19T04:14:19;6.15;;;4.00;;
66212;SDS011;53015;50.046;8.238;2023-11-19T04:16:45;5.05;;;3.08;;
66212;SDS011;53015;50.046;8.238;2023-11-19T04:19:10;6.07;;;3.92;;
66212;SDS011;53015;50.046;8.238;2023-11-19T04:21:36;7.03;;;3.30;;
66212;SDS011;53015;50.046;8.238;2023-11-19T04:24:02;7.10;;;3.75;;
66212;SDS011;53015;50.046;8.238;2023-11-19T04:26:28;13.52;;;4.15;;
66212;SDS011;53015;50.046;8.238;2023-11-19T04:28:55;6.22;;;3.83;;
66212;SDS011;53015;50.046;8.238;2023-11-19T04:31:20;7.45;;;4.00;;
66212;SDS011;53015;50.046;8.238;2023-11-19T04:33:45;6.20;;;3.90;;
66212;SDS011;53015;50.046;8.238;2023-11-19T04:36:11;9.95;;;4.70;;
66212;SDS011;53015;50.046;8.238;2023-11-19T04:38:36;9.82;;;4.40;;
66212;SDS011;53015;50.046;8.238;2023-11-19T04:41:02;6.88;;;4.38;;
66212;SDS011;53015;50.046;8.238;2023-11-19T04:43:28;6.07;;;3.92;;
66212;SDS011;53015;50.046;8.238;2023-11-19T04:45:55;6.63;;;3.97;;
66212;SDS011;53015;50.046;8.238;2023-11-19T04:48:21;6.45;;;4.22;;
66212;SDS011;53015;50.046;8.238;2023-11-19T04:50:46;5.38;;;4.03;;
66212;SDS011;53015;50.046;8.238;2023-11-19T04:53:12;7.95;;;4.13;;
66212;SDS011;53015;50.046;8.238;2023-11-19T04:55:37;6.95;;;4.32;;
66212;SDS011;53015;50.046;8.238;2023-11-19T04:58:02;7.70;;;4.30;;
66212;SDS011;53015;50.046;8.238;2023-11-19T05:00:28;7.05;;;4.13;;
66212;SDS011;53015;50.046;8.238;2023-11-19T05:02:57;6.28;;;4.60;;
66212;SDS011;53015;50.046;8.238;2023-11-19T05:05:23;5.53;;;3.92;;
66212;SDS011;53015;50.046;8.238;2023-11-19T05:07:48;9.85;;;4.97;;
66212;SDS011;53015;50.046;8.238;2023-11-19T05:10:14;7.05;;;5.10;;
66212;SDS011;53015;50.046;8.238;2023-11-19T05:12:40;9.15;;;5.03;;
66212;SDS011;53015;50.046;8.238;2023-11-19T05:15:06;9.10;;;5.03;;
66212;SDS011;53015;50.046;8.238;2023-11-19T05:17:32;6.43;;;4.75;;
66212;SDS011;53015;50.046;8.238;2023-11-19T05:19:59;7.97;;;4.90;;
66212;SDS011;53015;50.046;8.238;2023-11-19T05:22:25;6.68;;;5.13;;
66212;SDS011;53015;50.046;8.238;2023-11-19T05:24:50;9.35;;;5.38;;
66212;SDS011;53015;50.046;8.238;2023-11-19T05:27:16;6.93;;;4.32;;
66212;SDS011;53015;50.046;8.238;2023-11-19T05:29:41;6.90;;;4.43;;
66212;SDS011;53015;50.046;8.238;2023-11-19T05:32:07;5.80;;;4.03;;
66212;SDS011;53015;50.046;8.238;2023-11-19T05:34:32;6.40;;;4.35;;
66212;SDS011;53015;50.046;8.238;2023-11-19T05:36:59;8.38;;;4.43;;
66212;SDS011;53015;50.046;8.238;2023-11-19T05:39:25;6.30;;;4.82;;
66212;SDS011;53015;50.046;8.238;2023-11-19T05:41:51;5.63;;;4.25;;
66212;SDS011;53015;50.046;8.238;2023-11-19T05:44:16;8.52;;;4.75;;
66212;SDS011;53015;50.046;8.238;2023-11-19T05:46:42;9.18;;;4.57;;
66212;SDS011;53015;50.046;8.238;2023-11-19T05:49:08;8.05;;;5.20;;
66212;SDS011;53015;50.046;8.238;2023-11-19T05:51:36;8.07;;;5.20;;
66212;SDS011;53015;50.046;8.238;2023-11-19T05:54:03;8.57;;;5.57;;
66212;SDS011;53015;50.046;8.238;2023-11-19T05:56:29;7.15;;;5.07;;
66212;SDS011;53015;50.046;8.238;2023-11-19T05:58:54;6.93;;;4.75;;
66212;SDS011;53015;50.046;8.238;2023-11-19T06:01:19;6.88;;;4.97;;
66212;SDS011;53015;50.046;8.238;2023-11-19T06:03:45;7.05;;;5.20;;
66212;SDS011;53015;50.046;8.238;2023-11-19T06:06:11;8.50;;;5.55;;
66212;SDS011;53015;50.046;8.238;2023-11-19T06:08:37;6.60;;;5.10;;
66212;SDS011;53015;50.046;8.238;2023-11-19T06:11:04;8.25;;;5.05;;
66212;SDS011;53015;50.046;8.238;2023-11-19T06:13:29;6.72;;;5.30;;
66212;SDS011;53015;50.046;8.238;2023-11-19T06:15:55;6.60;;;5.10;;
66212;SDS011;53015;50.046;8.238;2023-11-19T06:18:21;8.88;;;5.70;;
66212;SDS011;53015;50.046;8.238;2023-11-19T06:20:46;6.90;;;5.40;;
66212;SDS011;53015;50.046;8.238;2023-11-19T06:23:12;6.80;;;4.70;;
66212;SDS011;53015;50.046;8.238;2023-11-19T06:25:38;8.23;;;5.22;;
66212;SDS011;53015;50.046;8.238;2023-11-19T06:28:05;8.70;;;5.70;;
66212;SDS011;53015;50.046;8.238;2023-11-19T06:30:31;7.40;;;5.45;;
66212;SDS011;53015;50.046;8.238;2023-11-19T06:32:56;9.93;;;5.47;;
66212;SDS011;53015;50.046;8.238;2023-11-19T06:35:22;8.13;;;5.57;;
66212;SDS011;53015;50.046;8.238;2023-11-19T06:37:48;8.88;;;4.82;;
66212;SDS011;53015;50.046;8.238;2023-11-19T06:40:13;7.65;;;5.18;;
66212;SDS011;53015;50.046;8.238;2023-11-19T06:42:39;6.00;;;4.82;;
66212;SDS011;53015;50.046;8.238;2023-11-19T06:45:06;8.07;;;4.78;;
66212;SDS011;53015;50.046;8.238;2023-11-19T06:47:32;5.40;;;4.80;;
66212;SDS011;53015;50.046;8.238;2023-11-19T06:49:58;8.50;;;5.45;;
66212;SDS011;53015;50.046;8.238;2023-11-19T06:52:23;9.52;;;6.10;;
66212;SDS011;53015;50.046;8.238;2023-11-19T06:54:49;8.38;;;5.90;;
66212;SDS011;53015;50.046;8.238;2023-11-19T06:57:15;9.70;;;5.68;;
66212;SDS011;53015;50.046;8.238;2023-11-19T06:59:41;6.90;;;5.53;;
66212;SDS011;53015;50.046;8.238;2023-11-19T07:02:08;9.93;;;5.00;;
66212;SDS011;53015;50.046;8.238;2023-11-19T07:04:34;8.60;;;5.28;;
66212;SDS011;53015;50.046;8.238;2023-11-19T07:07:00;9.43;;;6.07;;
66212;SDS011;53015;50.046;8.238;2023-11-19T07:09:26;7.22;;;5.45;;
66212;SDS011;53015;50.046;8.238;2023-11-19T07:11:52;7.70;;;5.03;;
66212;SDS011;53015;50.046;8.238;2023-11-19T07:14:17;6.72;;;4.65;;
66212;SDS011;53015;50.046;8.238;2023-11-19T07:16:43;9.48;;;5.43;;
66212;SDS011;53015;50.046;8.238;2023-11-19T07:19:10;7.53;;;4.55;;
66212;SDS011;53015;50.046;8.238;2023-11-19T07:21:36;8.05;;;5.25;;
66212;SDS011;53015;50.046;8.238;2023-11-19T07:24:02;7.60;;;5.40;;
66212;SDS011;53015;50.046;8.238;2023-11-19T07:26:28;7.40;;;5.07;;
66212;SDS011;53015;50.046;8.238;2023-11-19T07:28:53;8.18;;;5.60;;
66212;SDS011;53015;50.046;8.238;2023-11-19T07:31:19;8.85;;;5.85;;
66212;SDS011;53015;50.046;8.238;2023-11-19T07:33:44;8.07;;;5.13;;
66212;SDS011;53015;50.046;8.238;2023-11-19T07:36:11;8.60;;;6.05;;
66212;SDS011;53015;50.046;8.238;2023-11-19T07:38:37;8.35;;;5.68;;
66212;SDS011;53015;50.046;8.238;2023-11-19T07:41:03;6.85;;;5.10;;
66212;SDS011;53015;50.046;8.238;2023-11-19T07:43:29;9.27;;;5.93;;
66212;SDS011;53015;50.046;8.238;2023-11-19T07:45:54;9.00;;;5.95;;
66212;SDS011;53015;50.046;8.238;2023-11-19T07:48:20;9.35;;;6.20;;
66212;SDS011;53015;50.046;8.238;2023-11-19T07:50:45;7.68;;;5.10;;
66212;SDS011;53015;50.046;8.238;2023-11-19T07:53:12;8.90;;;5.63;;
66212;SDS011;53015;50.046;8.238;2023-11-19T07:55:37;8.00;;;5.80;;
66212;SDS011;53015;50.046;8.238;2023-11-19T07:58:03;9.82;;;5.25;;
66212;SDS011;53015;50.046;8.238;2023-11-19T08:00:29;7.97;;;5.55;;
66212;SDS011;53015;50.046;8.238;2023-11-19T08:02:54;9.52;;;5.93;;
66212;SDS011;53015;50.046;8.238;2023-11-19T08:05:19;10.15;;;5.38;;
66212;SDS011;53015;50.046;8.238;2023-11-19T08:07:45;8.80;;;5.20;;
66212;SDS011;53015;50.046;8.238;2023-11-19T08:10:12;8.88;;;5.10;;
66212;SDS011;53015;50.046;8.238;2023-11-19T08:12:37;6.57;;;5.53;;
66212;SDS011;53015;50.046;8.238;2023-11-19T08:15:03;7.30;;;6.05;;
66212;SDS011;53015;50.046;8.238;2023-11-19T08:17:29;5.90;;;4.30;;
66212;SDS011;53015;50.046;8.238;2023-11-19T08:19:55;8.27;;;4.13;;
66212;SDS011;53015;50.046;8.238;2023-11-19T08:22:20;4.72;;;3.67;;
66212;SDS011;53015;50.046;8.238;2023-11-19T08:24:45;4.68;;;3.25;;
66212;SDS011;53015;50.046;8.238;2023-11-19T08:27:12;4.75;;;3.47;;
66212;SDS011;53015;50.046;8.238;2023-11-19T08:29:38;5.90;;;3.75;;
66212;SDS011;53015;50.046;8.238;2023-11-19T08:32:04;4.95;;;2.72;;
66212;SDS011;53015;50.046;8.238;2023-11-19T08:34:30;4.93;;;3.58;;
66212;SDS011;53015;50.046;8.238;2023-11-19T08:36:55;4.15;;;2.72;;
66212;SDS011;53015;50.046;8.238;2023-11-19T08:39:21;3.13;;;2.83;;
66212;SDS011;53015;50.046;8.238;2023-11-19T08:41:46;3.28;;;2.72;;
66212;SDS011;53015;50.046;8.238;2023-11-19T08:44:13;5.18;;;3.05;;
66212;SDS011;53015;50.046;8.238;2023-11-19T08:46:39;3.45;;;2.88;;
66212;SDS011;53015;50.046;8.238;2023-11-19T08:49:10;4.65;;;2.97;;
66212;SDS011;53015;50.046;8.238;2023-11-19T08:51:36;5.10;;;3.15;;
66212;SDS011;53015;50.046;8.238;2023-11-19T08:54:01;5.95;;;4.05;;
66212;SDS011;53015;50.046;8.238;2023-11-19T08:56:27;5.38;;;3.17;;
66212;SDS011;53015;50.046;8.238;2023-11-19T08:58:52;6.80;;;3.22;;
66212;SDS011;53015;50.046;8.238;2023-11-19T09:01:19;4.30;;;3.05;;
66212;SDS011;53015;50.046;8.238;2023-11-19T09:03:45;5.25;;;3.33;;
66212;SDS011;53015;50.046;8.238;2023-11-19T09:06:10;4.68;;;3.17;;
66212;SDS011;53015;50.046;8.238;2023-11-19T09:08:36;3.95;;;3.20;;
66212;SDS011;53015;50.046;8.238;2023-11-19T09:11:01;3.30;;;3.00;;
66212;SDS011;53015;50.046;8.238;2023-11-19T09:13:32;5.35;;;3.60;;
66212;SDS011;53015;50.046;8.238;2023-11-19T09:15:57;4.53;;;3.10;;
66212;SDS011;53015;50.046;8.238;2023-11-19T09:18:24;4.22;;;3.10;;
66212;SDS011;53015;50.046;8.238;2023-11-19T09:20:49;4.63;;;2.38;;
66212;SDS011;53015;50.046;8.238;2023-11-19T09:23:15;6.65;;;2.50;;
66212;SDS011;53015;50.046;8.238;2023-11-19T09:25:40;5.68;;;2.75;;
66212;SDS011;53015;50.046;8.238;2023-11-19T09:28:06;2.65;;;2.20;;
66212;SDS011;53015;50.046;8.238;2023-11-19T09:30:31;4.55;;;2.35;;
66212;SDS011;53015;50.046;8.238;2023-11-19T09:32:57;3.83;;;2.72;;
66212;SDS011;53015;50.046;8.238;2023-11-19T09:35:23;6.45;;;2.47;;
66212;SDS011;53015;50.046;8.238;2023-11-19T09:37:49;6.28;;;2.30;;
66212;SDS011;53015;50.046;8.238;2023-11-19T09:40:14;8.23;;;2.00;;
66212;SDS011;53015;50.046;8.238;2023-11-19T09:42:42;3.50;;;1.80;;
66212;SDS011;53015;50.046;8.238;2023-11-19T09:45:08;6.45;;;1.70;;
66212;SDS011;53015;50.046;8.238;2023-11-19T09:47:38;3.55;;;1.50;;
66212;SDS011;53015;50.046;8.238;2023-11-19T09:50:04;7.38;;;1.67;;
66212;SDS011;53015;50.046;8.238;2023-11-19T09:52:32;3.35;;;1.05;;
66212;SDS011;53015;50.046;8.238;2023-11-19T09:54:57;5.57;;;1.15;;
66212;SDS011;53015;50.046;8.238;2023-11-19T09:57:23;3.75;;;1.40;;
66212;SDS011;53015;50.046;8.238;2023-11-19T09:59:48;4.13;;;1.33;;
66212;SDS011;53015;50.046;8.238;2023-11-19T10:02:15;4.57;;;1.58;;
66212;SDS011;53015;50.046;8.238;2023-11-19T10:04:42;5.78;;;1.20;;
66212;SDS011;53015;50.046;8.238;2023-11-19T10:07:08;5.63;;;1.00;;
66212;SDS011;53015;50.046;8.238;2023-11-19T10:09:35;5.10;;;1.38;;
66212;SDS011;53015;50.046;8.238;2023-11-19T10:12:00;4.60;;;1.25;;
66212;SDS011;53015;50.046;8.238;2023-11-19T10:14:26;5.82;;;1.42;;
66212;SDS011;53015;50.046;8.238;2023-11-19T10:16:56;7.32;;;1.10;;
66212;SDS011;53015;50.046;8.238;2023-11-19T10:19:21;7.15;;;1.00;;
66212;SDS011;53015;50.046;8.238;2023-11-19T10:21:47;5.97;;;1.02;;
66212;SDS011;53015;50.046;8.238;2023-11-19T10:24:13;6.75;;;1.20;;
66212;SDS011;53015;50.046;8.238;2023-11-19T10:26:40;6.65;;;1.30;;
66212;SDS011;53015;50.046;8.238;2023-11-19T10:29:06;7.05;;;1.58;;
66212;SDS011;53015;50.046;8.238;2023-11-19T10:31:31;5.10;;;1.20;;
66212;SDS011;53015;50.046;8.238;2023-11-19T10:33:57;6.75;;;1.17;;
66212;SDS011;53015;50.046;8.238;2023-11-19T10:36:22;6.00;;;1.08;;
66212;SDS011;53015;50.046;8.238;2023-11-19T10:38:51;5.18;;;1.00;;
66212;SDS011;53015;50.046;8.238;2023-11-19T10:41:26;7.80;;;1.77;;
66212;SDS011;53015;50.046;8.238;2023-11-19T10:43:53;8.50;;;1.33;;
66212;SDS011;53015;50.046;8.238;2023-11-19T10:46:19;5.28;;;1.00;;
66212;SDS011;53015;50.046;8.238;2023-11-19T10:48:44;4.97;;;0.95;;
66212;SDS011;53015;50.046;8.238;2023-11-19T10:51:10;9.57;;;1.75;;
66212;SDS011;53015;50.046;8.238;2023-11-19T10:53:39;6.38;;;1.08;;
66212;SDS011;53015;50.046;8.238;2023-11-19T10:56:08;7.75;;;1.23;;
66212;SDS011;53015;50.046;8.238;2023-11-19T10:58:35;8.05;;;1.17;;
66212;SDS011;53015;50.046;8.238;2023-11-19T11:01:03;9.55;;;1.63;;
66212;SDS011;53015;50.046;8.238;2023-11-19T11:03:37;8.18;;;1.00;;
66212;SDS011;53015;50.046;8.238;2023-11-19T11:06:05;8.35;;;1.60;;
66212;SDS011;53015;50.046;8.238;2023-11-19T11:08:31;15.55;;;1.75;;
66212;SDS011;53015;50.046;8.238;2023-11-19T11:10:57;6.90;;;1.30;;
66212;SDS011;53015;50.046;8.238;2023-11-19T11:13:23;7.53;;;1.20;;
66212;SDS011;53015;50.046;8.238;2023-11-19T11:15:49;4.75;;;0.68;;
66212;SDS011;53015;50.046;8.238;2023-11-19T11:18:16;5.35;;;0.95;;
66212;SDS011;53015;50.046;8.238;2023-11-19T11:20:43;5.72;;;1.13;;
66212;SDS011;53015;50.046;8.238;2023-11-19T11:23:22;4.57;;;0.85;;
66212;SDS011;53015;50.046;8.238;2023-11-19T11:26:09;7.28;;;1.30;;
66212;SDS011;53015;50.046;8.238;2023-11-19T11:28:52;7.40;;;1.08;;
66212;SDS011;53015;50.046;8.238;2023-11-19T11:31:26;8.20;;;1.40;;
66212;SDS011;53015;50.046;8.238;2023-11-19T11:34:04;5.53;;;1.27;;
66212;SDS011;53015;50.046;8.238;2023-11-19T11:36:46;10.95;;;1.55;;
66212;SDS011;53015;50.046;8.238;2023-11-19T11:39:31;4.82;;;1.13;;
66212;SDS011;53015;50.046;8.238;2023-11-19T11:44:59;5.38;;;1.10;;
66212;SDS011;53015;50.046;8.238;2023-11-19T11:47:26;7.70;;;1.75;;
66212;SDS011;53015;50.046;8.238;2023-11-19T11:50:13;13.10;;;1.30;;
66212;SDS011;53015;50.046;8.238;2023-11-19T11:55:51;5.90;;;0.98;;
66212;SDS011;53015;50.046;8.238;2023-11-19T11:58:18;5.53;;;1.00;;
66212;SDS011;53015;50.046;8.238;2023-11-19T12:00:44;4.55;;;1.17;;
66212;SDS011;53015;50.046;8.238;2023-11-19T12:03:12;8.05;;;1.40;;
66212;SDS011;53015;50.046;8.238;2023-11-19T12:05:39;5.90;;;1.30;;
66212;SDS011;53015;50.046;8.238;2023-11-19T12:08:06;6.88;;;1.20;;
66212;SDS011;53015;50.046;8.238;2023-11-19T12:10:34;8.13;;;1.75;;
66212;SDS011;53015;50.046;8.238;2023-11-19T12:13:02;5.15;;;1.17;;
66212;SDS011;53015;50.046;8.238;2023-11-19T12:15:30;5.43;;;1.15;;
66212;SDS011;53015;50.046;8.238;2023-11-19T12:17:56;8.13;;;1.23;;
66212;SDS011;53015;50.046;8.238;2023-11-19T12:20:22;7.75;;;1.10;;
66212;SDS011;53015;50.046;8.238;2023-11-19T12:22:49;5.43;;;1.25;;
66212;SDS011;53015;50.046;8.238;2023-11-19T12:25:16;5.32;;;1.20;;
66212;SDS011;53015;50.046;8.238;2023-11-19T12:27:43;6.90;;;1.10;;
66212;SDS011;53015;50.046;8.238;2023-11-19T12:30:10;6.72;;;1.50;;
66212;SDS011;53015;50.046;8.238;2023-11-19T12:32:39;5.65;;;1.02;;
66212;SDS011;53015;50.046;8.238;2023-11-19T12:35:05;5.30;;;0.90;;
66212;SDS011;53015;50.046;8.238;2023-11-19T12:37:31;9.45;;;1.55;;
66212;SDS011;53015;50.046;8.238;2023-11-19T12:39:58;5.15;;;1.33;;
66212;SDS011;53015;50.046;8.238;2023-11-19T12:42:34;6.90;;;1.98;;
66212;SDS011;53015;50.046;8.238;2023-11-19T12:45:00;5.30;;;1.45;;
66212;SDS011;53015;50.046;8.238;2023-11-19T12:47:26;5.20;;;1.00;;
66212;SDS011;53015;50.046;8.238;2023-11-19T12:49:57;4.85;;;0.98;;
66212;SDS011;53015;50.046;8.238;2023-11-19T12:52:23;5.43;;;1.08;;
66212;SDS011;53015;50.046;8.238;2023-11-19T12:54:48;6.70;;;1.02;;
66212;SDS011;53015;50.046;8.238;2023-11-19T12:57:15;7.70;;;1.10;;
66212;SDS011;53015;50.046;8.238;2023-11-19T12:59:41;7.93;;;1.63;;
66212;SDS011;53015;50.046;8.238;2023-11-19T13:02:07;5.13;;;1.10;;
66212;SDS011;53015;50.046;8.238;2023-11-19T13:04:32;5.95;;;1.52;;
66212;SDS011;53015;50.046;8.238;2023-11-19T13:06:58;8.48;;;1.30;;
66212;SDS011;53015;50.046;8.238;2023-11-19T13:09:23;4.32;;;1.17;;
66212;SDS011;53015;50.046;8.238;2023-11-19T13:11:49;10.10;;;1.75;;
66212;SDS011;53015;50.046;8.238;2023-11-19T13:14:16;9.43;;;1.75;;
66212;SDS011;53015;50.046;8.238;2023-11-19T13:16:42;8.30;;;1.30;;
66212;SDS011;53015;50.046;8.238;2023-11-19T13:19:07;4.53;;;1.33;;
66212;SDS011;53015;50.046;8.238;2023-11-19T13:21:33;9.70;;;1.80;;
66212;SDS011;53015;50.046;8.238;2023-11-19T13:23:59;11.32;;;1.58;;
66212;SDS011;53015;50.046;8.238;2023-11-19T13:26:24;10.18;;;1.98;;
66212;SDS011;53015;50.046;8.238;2023-11-19T13:28:50;8.93;;;1.60;;
66212;SDS011;53015;50.046;8.238;2023-11-19T13:31:17;6.53;;;1.27;;
66212;SDS011;53015;50.046;8.238;2023-11-19T13:33:42;3.65;;;1.00;;
66212;SDS011;53015;50.046;8.238;2023-11-19T13:36:08;5.40;;;1.33;;
66212;SDS011;53015;50.046;8.238;2023-11-19T13:38:34;9.82;;;1.42;;
66212;SDS011;53015;50.046;8.238;2023-11-19T13:40:59;8.43;;;1.15;;
66212;SDS011;53015;50.046;8.238;2023-11-19T13:43:25;9.90;;;1.13;;
66212;SDS011;53015;50.046;8.238;2023-11-19T13:45:51;7.57;;;1.30;;
66212;SDS011;53015;50.046;8.238;2023-11-19T13:48:17;7.45;;;1.30;;
66212;SDS011;53015;50.046;8.238;2023-11-19T13:50:43;8.30;;;1.20;;
66212;SDS011;53015;50.046;8.238;2023-11-19T13:53:08;11.52;;;1.00;;
66212;SDS011;53015;50.046;8.238;2023-11-19T13:55:34;8.07;;;1.40;;
66212;SDS011;53015;50.046;8.238;2023-11-19T13:57:59;8.60;;;1.27;;
66212;SDS011;53015;50.046;8.238;2023-11-19T14:00:25;9.38;;;1.20;;
66212;SDS011;53015;50.046;8.238;2023-11-19T14:02:50;5.53;;;1.20;;
66212;SDS011;53015;50.046;8.238;2023-11-19T14:05:17;5.22;;;1.80;;
66212;SDS011;53015;50.046;8.238;2023-11-19T14:07:43;8.52;;;1.45;;
66212;SDS011;53015;50.046;8.238;2023-11-19T14:10:09;8.40;;;1.35;;
66212;SDS011;53015;50.046;8.238;2023-11-19T14:12:35;5.90;;;1.25;;
66212;SDS011;53015;50.046;8.238;2023-11-19T14:15:01;6.35;;;1.45;;
66212;SDS011;53015;50.046;8.238;2023-11-19T14:17:26;7.95;;;1.35;;
66212;SDS011;53015;50.046;8.238;2023-11-19T14:19:52;7.05;;;1.23;;
66212;SDS011;53015;50.046;8.238;2023-11-19T14:22:19;6.25;;;1.30;;
66212;SDS011;53015;50.046;8.238;2023-11-19T14:24:44;8.55;;;1.65;;
66212;SDS011;53015;50.046;8.238;2023-11-19T14:27:10;7.35;;;1.20;;
66212;SDS011;53015;50.046;8.238;2023-11-19T14:29:36;8.43;;;1.42;;
66212;SDS011;53015;50.046;8.238;2023-11-19T14:32:01;8.25;;;1.45;;
66212;SDS011;53015;50.046;8.238;2023-11-19T14:34:27;10.75;;;1.52;;
66212;SDS011;53015;50.046;8.238;2023-11-19T14:36:53;6.13;;;1.20;;
66212;SDS011;53015;50.046;8.238;2023-11-19T14:39:20;8.32;;;1.40;;
66212;SDS011;53015;50.046;8.238;2023-11-19T14:41:46;7.82;;;1.70;;
66212;SDS011;53015;50.046;8.238;2023-11-19T14:44:12;7.47;;;1.17;;
66212;SDS011;53015;50.046;8.238;2023-11-19T14:46:37;10.45;;;1.38;;
66212;SDS011;53015;50.046;8.238;2023-11-19T14:49:03;10.20;;;1.30;;
66212;SDS011;53015;50.046;8.238;2023-11-19T14:51:28;8.75;;;1.70;;